createdAt,value
2023-02-16T00:01:16.843Z,43.88
2023-02-16T00:03:46.558Z,42.30
2023-02-16T00:06:16.223Z,44.30
2023-02-16T00:08:45.595Z,48.45
2023-02-16T00:11:35.657Z,45.05
2023-02-16T00:14:04.413Z,44.72
2023-02-16T00:16:32.235Z,47.50
2023-02-16T00:19:01.320Z,44.25
2023-02-16T00:21:29.154Z,44.47
2023-02-16T00:23:56.942Z,47.10
2023-02-16T00:26:25.978Z,43.63
2023-02-16T00:28:55.134Z,43.83
2023-02-16T00:31:27.312Z,49.10
2023-02-16T00:33:55.660Z,44.10
2023-02-16T00:36:25.071Z,43.30
2023-02-16T00:38:52.965Z,55.63
2023-02-16T00:41:40.090Z,49.17
2023-02-16T00:44:08.119Z,51.47
2023-02-16T00:46:35.946Z,44.50
2023-02-16T00:49:04.107Z,44.35
2023-02-16T00:51:33.416Z,47.15
2023-02-16T00:54:01.088Z,47.83
2023-02-16T00:56:28.861Z,49.65
2023-02-16T00:58:56.665Z,50.30
2023-02-16T01:01:25.850Z,50.47
2023-02-16T01:03:53.568Z,46.95
2023-02-16T01:06:50.365Z,49.60
2023-02-16T01:09:38.790Z,44.47
2023-02-16T01:12:10.644Z,47.75
2023-02-16T01:14:38.641Z,54.70
2023-02-16T01:17:06.295Z,55.78
2023-02-16T01:19:33.997Z,48.40
2023-02-16T01:22:01.731Z,50.25
2023-02-16T01:24:30.850Z,56.80
2023-02-16T01:26:58.512Z,46.60
2023-02-16T01:29:27.038Z,55.00
2023-02-16T01:31:54.864Z,54.20
2023-02-16T01:34:22.619Z,55.88
2023-02-16T01:36:50.673Z,53.88
2023-02-16T01:39:20.775Z,53.40
2023-02-16T01:41:58.653Z,61.33
2023-02-16T01:44:28.663Z,56.83
2023-02-16T01:46:58.279Z,53.22
2023-02-16T01:49:26.107Z,56.87
2023-02-16T01:51:57.753Z,55.03
2023-02-16T01:54:35.641Z,56.13
2023-02-16T01:57:10.209Z,50.33
2023-02-16T01:59:43.258Z,61.72
2023-02-16T02:02:16.561Z,60.42
2023-02-16T02:05:03.577Z,60.40
2023-02-16T02:07:38.795Z,57.05
2023-02-16T02:10:11.600Z,61.97
2023-02-16T02:12:47.713Z,56.00
2023-02-16T02:15:16.998Z,61.20
2023-02-16T02:17:46.220Z,56.60
2023-02-16T02:20:18.077Z,59.38
2023-02-16T02:23:16.540Z,56.97
2023-02-16T02:25:59.849Z,58.55
2023-02-16T02:28:34.290Z,61.47
2023-02-16T02:31:04.755Z,55.78
2023-02-16T02:33:42.585Z,63.17
2023-02-16T02:36:19.974Z,59.08
2023-02-16T02:38:57.519Z,61.65
2023-02-16T02:41:48.641Z,57.58
2023-02-16T02:44:21.118Z,55.20
2023-02-16T02:46:48.983Z,59.90
2023-02-16T02:49:17.114Z,59.90
2023-02-16T02:51:44.786Z,55.10
2023-02-16T02:54:32.049Z,55.90
2023-02-16T02:57:20.367Z,57.72
2023-02-16T03:00:11.356Z,66.50
2023-02-16T03:02:40.785Z,50.45
2023-02-16T03:05:10.303Z,51.77
2023-02-16T03:07:48.220Z,61.85
2023-02-16T03:10:34.915Z,57.70
2023-02-16T03:13:03.838Z,58.47
2023-02-16T03:15:33.253Z,67.75
2023-02-16T03:18:19.002Z,61.58
2023-02-16T03:21:05.134Z,60.63
2023-02-16T03:23:50.595Z,61.63
2023-02-16T03:26:36.951Z,59.30
2023-02-16T03:29:16.720Z,61.97
2023-02-16T03:31:46.439Z,59.70
2023-02-16T03:34:14.402Z,59.97
2023-02-16T03:36:44.678Z,60.70
2023-02-16T03:39:13.925Z,58.13
2023-02-16T03:41:43.787Z,62.97
2023-02-16T03:44:11.531Z,56.58
2023-02-16T03:46:39.231Z,55.95
2023-02-16T03:49:08.258Z,62.35
2023-02-16T03:51:35.971Z,55.55
2023-02-16T03:54:03.640Z,54.15
2023-02-16T03:56:31.321Z,60.13
2023-02-16T03:58:59.102Z,64.03
2023-02-16T04:01:26.887Z,57.97
2023-02-16T04:03:54.599Z,60.10
2023-02-16T04:06:23.807Z,61.65
2023-02-16T04:08:51.924Z,60.70
2023-02-16T04:11:37.028Z,57.35
2023-02-16T04:14:04.722Z,61.17
2023-02-16T04:16:32.439Z,57.30
2023-02-16T04:19:00.111Z,61.00
2023-02-16T04:21:29.565Z,56.95
2023-02-16T04:23:57.173Z,58.30
2023-02-16T04:26:24.812Z,59.42
2023-02-16T04:28:52.527Z,55.67
2023-02-16T04:31:20.355Z,60.08
2023-02-16T04:33:48.137Z,60.58
2023-02-16T04:36:15.810Z,59.77
2023-02-16T04:38:44.985Z,62.80
2023-02-16T04:41:12.594Z,60.22
2023-02-16T04:43:40.229Z,61.27
2023-02-16T04:46:07.927Z,63.03
2023-02-16T04:48:35.604Z,58.72
2023-02-16T04:51:05.257Z,55.88
2023-02-16T04:53:33.347Z,62.22
2023-02-16T04:56:02.397Z,55.57
2023-02-16T04:58:30.114Z,59.72
2023-02-16T05:00:57.766Z,58.03
2023-02-16T05:03:25.433Z,57.43
2023-02-16T05:05:53.065Z,61.15
2023-02-16T05:08:21.007Z,64.70
2023-02-16T05:11:08.935Z,60.17
2023-02-16T05:13:55.879Z,56.03
2023-02-16T05:16:24.395Z,61.33
2023-02-16T05:18:52.095Z,58.38
2023-02-16T05:21:32.398Z,60.78
2023-02-16T05:24:00.403Z,60.22
2023-02-16T05:26:29.334Z,68.72
2023-02-16T05:28:58.638Z,54.80
2023-02-16T05:31:27.378Z,59.83
2023-02-16T05:33:55.171Z,62.33
2023-02-16T05:36:23.321Z,57.63
2023-02-16T05:38:50.993Z,50.88
2023-02-16T05:41:24.457Z,58.38
2023-02-16T05:43:53.737Z,58.78
2023-02-16T05:46:24.012Z,56.20
2023-02-16T05:48:52.803Z,61.33
2023-02-16T05:51:20.874Z,58.07
2023-02-16T05:53:48.631Z,55.72
2023-02-16T05:56:16.469Z,58.80
2023-02-16T05:58:44.115Z,58.03
2023-02-16T06:01:11.887Z,51.97
2023-02-16T06:03:41.255Z,61.50
2023-02-16T06:06:09.764Z,57.42
2023-02-16T06:08:38.124Z,60.65
2023-02-16T06:11:27.271Z,53.63
2023-02-16T06:13:58.106Z,60.17
2023-02-16T06:16:26.707Z,57.30
2023-02-16T06:18:56.275Z,54.65
2023-02-16T06:21:24.789Z,56.23
2023-02-16T06:23:52.619Z,55.63
2023-02-16T06:26:20.262Z,57.67
2023-02-16T06:28:47.984Z,60.13
2023-02-16T06:31:15.784Z,52.08
2023-02-16T06:33:43.943Z,55.90
2023-02-16T06:36:13.237Z,57.90
2023-02-16T06:38:40.892Z,53.72
2023-02-16T06:41:08.675Z,59.72
2023-02-16T06:43:36.638Z,56.97
2023-02-16T06:46:04.755Z,53.90
2023-02-16T06:48:32.416Z,56.95
2023-02-16T06:51:00.099Z,53.85
2023-02-16T06:53:29.160Z,53.60
2023-02-16T06:55:57.345Z,54.17
2023-02-16T06:58:24.994Z,57.78
2023-02-16T07:00:55.704Z,57.58
2023-02-16T07:03:23.395Z,53.38
2023-02-16T07:05:51.173Z,52.80
2023-02-16T07:08:18.844Z,54.60
2023-02-16T07:10:50.354Z,56.03
2023-02-16T07:13:18.214Z,58.97
2023-02-16T07:15:51.614Z,49.42
2023-02-16T07:18:19.345Z,55.90
2023-02-16T07:20:47.338Z,52.90
2023-02-16T07:23:14.961Z,59.92
2023-02-16T07:25:42.628Z,57.08
2023-02-16T07:28:11.702Z,56.58
2023-02-16T07:30:39.423Z,54.83
2023-02-16T07:33:07.704Z,51.97
2023-02-16T07:35:35.430Z,49.72
2023-02-16T07:38:03.407Z,47.47
2023-02-16T07:40:31.842Z,59.38
2023-02-16T07:43:00.726Z,53.20
2023-02-16T07:45:32.649Z,52.88
2023-02-16T07:48:00.416Z,50.38
2023-02-16T07:50:28.165Z,53.13
2023-02-16T07:52:55.839Z,46.72
2023-02-16T07:55:23.597Z,55.00
2023-02-16T07:57:55.409Z,54.55
2023-02-16T08:00:23.387Z,53.00
2023-02-16T08:02:52.755Z,55.83
2023-02-16T08:05:20.536Z,53.45
2023-02-16T08:07:48.616Z,51.35
2023-02-16T08:10:16.326Z,52.00
2023-02-16T08:12:44.426Z,53.15
2023-02-16T08:15:12.542Z,49.70
2023-02-16T08:17:40.813Z,46.78
2023-02-16T08:20:10.853Z,48.35
2023-02-16T08:22:38.597Z,46.90
2023-02-16T08:25:07.261Z,47.25
2023-02-16T08:27:35.585Z,49.67
2023-02-16T08:30:03.512Z,45.72
2023-02-16T08:32:31.420Z,45.43
2023-02-16T08:34:59.502Z,46.65
2023-02-16T08:37:28.738Z,49.92
2023-02-16T08:39:56.407Z,45.67
2023-02-16T08:42:24.056Z,48.40
2023-02-16T08:44:52.993Z,46.45
2023-02-16T08:47:21.103Z,44.85
2023-02-16T08:49:48.813Z,43.13
2023-02-16T08:52:16.841Z,49.35
2023-02-16T08:54:45.878Z,46.13
2023-02-16T08:57:13.503Z,54.38
2023-02-16T08:59:41.222Z,47.95
2023-02-16T09:02:09.174Z,43.92
2023-02-16T09:04:37.099Z,47.47
2023-02-16T09:07:05.257Z,45.65
2023-02-16T09:09:33.265Z,49.97
2023-02-16T09:12:02.778Z,48.55
2023-02-16T09:14:30.487Z,51.77
2023-02-16T09:16:58.216Z,48.67
2023-02-16T09:19:26.174Z,46.80
2023-02-16T09:21:56.310Z,44.35
2023-02-16T09:24:23.957Z,45.40
2023-02-16T09:26:52.079Z,49.78
2023-02-16T09:29:21.794Z,45.97
2023-02-16T09:31:49.819Z,42.03
2023-02-16T09:34:19.054Z,42.63
2023-02-16T09:36:47.376Z,45.90
2023-02-16T09:39:16.537Z,41.90
2023-02-16T09:42:03.789Z,44.88
2023-02-16T09:44:39.836Z,47.33
2023-02-16T09:47:12.754Z,45.65
2023-02-16T09:49:42.738Z,45.88
2023-02-16T09:52:15.869Z,44.17
2023-02-16T09:54:47.595Z,44.07
2023-02-16T09:57:21.436Z,52.88
2023-02-16T09:59:54.065Z,55.75
2023-02-16T10:02:32.032Z,76.93
2023-02-16T10:05:13.362Z,51.88
2023-02-16T10:07:46.899Z,67.20
2023-02-16T10:10:17.797Z,53.00
2023-02-16T10:12:51.573Z,40.13
2023-02-16T10:15:22.931Z,41.33
2023-02-16T10:17:55.495Z,99.15
2023-02-16T10:20:25.913Z,48.50
2023-02-16T10:22:58.610Z,43.80
2023-02-16T10:25:30.841Z,46.17
2023-02-16T10:28:16.062Z,46.78
2023-02-16T10:30:50.358Z,52.50
2023-02-16T10:33:24.328Z,40.33
2023-02-16T10:35:57.133Z,53.00
2023-02-16T10:38:32.346Z,55.83
2023-02-16T10:41:03.033Z,122.80
2023-02-16T10:43:40.917Z,335.73
2023-02-16T10:46:11.948Z,43.58
2023-02-16T10:48:39.667Z,42.90
2023-02-16T10:51:14.151Z,49.65
2023-02-16T10:53:44.459Z,38.58
2023-02-16T10:56:32.792Z,42.05
2023-02-16T10:59:01.877Z,53.75
2023-02-16T11:01:38.233Z,38.78
2023-02-16T11:04:06.399Z,40.75
2023-02-16T11:06:36.424Z,44.25
2023-02-16T11:09:06.633Z,42.17
2023-02-16T11:11:38.081Z,41.95
2023-02-16T11:14:09.168Z,43.47
2023-02-16T11:16:38.276Z,39.50
2023-02-16T11:19:08.822Z,38.00
2023-02-16T11:21:48.445Z,38.70
2023-02-16T11:24:26.264Z,39.97
2023-02-16T11:27:06.184Z,36.60
2023-02-16T11:29:34.369Z,41.75
2023-02-16T11:32:08.233Z,40.58
2023-02-16T11:34:37.644Z,40.83
2023-02-16T11:37:09.141Z,36.90
2023-02-16T11:39:39.130Z,42.30
2023-02-16T11:42:09.880Z,39.33
2023-02-16T11:44:39.928Z,36.38
2023-02-16T11:47:23.872Z,44.55
2023-02-16T11:49:53.468Z,39.55
2023-02-16T11:52:29.176Z,43.33
2023-02-16T11:54:58.833Z,45.35
2023-02-16T11:57:28.610Z,44.90
2023-02-16T11:59:57.183Z,44.33
2023-02-16T12:02:40.727Z,37.92
2023-02-16T12:05:23.399Z,42.85
2023-02-16T12:08:02.448Z,40.88
2023-02-16T12:10:32.624Z,39.10
2023-02-16T12:13:04.106Z,46.27
2023-02-16T12:15:36.886Z,46.28
2023-02-16T12:18:18.374Z,45.22
2023-02-16T12:20:54.164Z,48.03
2023-02-16T12:23:31.102Z,45.83
2023-02-16T12:26:09.875Z,48.92
2023-02-16T12:28:43.566Z,45.35
2023-02-16T12:31:17.208Z,43.22
2023-02-16T12:33:51.883Z,39.30
2023-02-16T12:36:29.926Z,45.05
2023-02-16T12:39:04.999Z,46.23
2023-02-16T12:41:44.268Z,43.30
2023-02-16T12:44:17.422Z,46.10
2023-02-16T12:46:46.900Z,44.80
2023-02-16T12:49:21.169Z,41.55
2023-02-16T12:51:51.816Z,50.75
2023-02-16T12:54:23.939Z,47.63
2023-02-16T12:56:56.193Z,54.13
2023-02-16T12:59:27.422Z,46.20
2023-02-16T13:01:57.214Z,46.15
2023-02-16T13:04:38.271Z,40.92
2023-02-16T13:07:17.992Z,41.03
2023-02-16T13:09:53.442Z,39.53
2023-02-16T13:12:27.466Z,48.15
2023-02-16T13:15:02.817Z,41.13
2023-02-16T13:17:34.545Z,236.77
2023-02-16T13:20:04.951Z,47.17
2023-02-16T13:22:45.244Z,45.35
2023-02-16T13:25:43.180Z,50.67
2023-02-16T13:28:27.381Z,77.47
2023-02-16T13:31:08.312Z,74.20
2023-02-16T13:33:51.558Z,56.25
2023-02-16T13:36:36.044Z,50.70
2023-02-16T13:39:17.541Z,51.25
2023-02-16T13:41:58.770Z,99.13
2023-02-16T13:44:29.679Z,84.57
2023-02-16T13:46:57.672Z,51.15
2023-02-16T13:49:33.931Z,50.88
2023-02-16T13:52:03.744Z,49.90
2023-02-16T13:54:33.026Z,49.72
2023-02-16T13:57:04.088Z,52.95
2023-02-16T13:59:51.021Z,53.55
2023-02-16T14:02:54.404Z,50.25
2023-02-16T14:05:31.119Z,51.58
2023-02-16T14:08:20.356Z,57.10
2023-02-16T14:10:58.938Z,51.07
2023-02-16T14:13:29.817Z,50.20
2023-02-16T14:15:59.193Z,49.63
2023-02-16T14:18:32.731Z,51.20
2023-02-16T14:21:04.936Z,51.50
2023-02-16T14:23:35.564Z,60.70
2023-02-16T14:26:04.810Z,55.30
2023-02-16T14:29:00.672Z,51.22
2023-02-16T14:31:28.792Z,58.72
2023-02-16T14:34:03.641Z,58.13
2023-02-16T14:36:32.235Z,52.22
2023-02-16T14:39:01.926Z,58.33
2023-02-16T14:41:32.507Z,57.33
2023-02-16T14:44:24.796Z,53.08
2023-02-16T14:47:01.553Z,49.10
2023-02-16T14:49:39.171Z,56.30
2023-02-16T14:52:26.434Z,52.63
2023-02-16T14:55:24.060Z,50.80
2023-02-16T14:57:54.887Z,54.15
2023-02-16T15:00:26.857Z,49.78
2023-02-16T15:02:59.640Z,56.42
2023-02-16T15:05:29.990Z,52.85
2023-02-16T15:08:04.646Z,51.45
2023-02-16T15:10:34.006Z,52.15
2023-02-16T15:13:02.348Z,49.55
2023-02-16T15:15:42.375Z,48.55
2023-02-16T15:18:15.370Z,56.70
2023-02-16T15:20:46.282Z,50.27
2023-02-16T15:23:20.037Z,48.10
2023-02-16T15:25:58.629Z,51.03
2023-02-16T15:28:27.685Z,48.78
2023-02-16T15:30:57.234Z,48.85
2023-02-16T15:33:34.245Z,50.55
2023-02-16T15:36:04.582Z,54.67
2023-02-16T15:38:34.222Z,53.28
2023-02-16T15:41:06.022Z,53.28
2023-02-16T15:43:35.865Z,50.75
2023-02-16T15:46:05.702Z,57.75
2023-02-16T15:48:34.805Z,57.17
2023-02-16T15:51:08.038Z,55.03
2023-02-16T15:53:43.211Z,61.53
2023-02-16T15:56:25.827Z,54.47
2023-02-16T15:58:54.042Z,53.47
2023-02-16T16:01:31.597Z,47.45
2023-02-16T16:04:05.799Z,48.88
2023-02-16T16:06:35.908Z,50.35
2023-02-16T16:09:08.228Z,54.00
2023-02-16T16:11:38.294Z,51.38
2023-02-16T16:14:07.318Z,53.70
2023-02-16T16:16:35.157Z,52.47
2023-02-16T16:19:08.728Z,48.45
2023-02-16T16:21:39.335Z,53.75
2023-02-16T16:24:08.831Z,48.38
2023-02-16T16:26:52.926Z,52.17
2023-02-16T16:29:31.962Z,53.50
2023-02-16T16:31:59.693Z,49.73
2023-02-16T16:34:36.726Z,53.75
2023-02-16T16:37:07.000Z,52.22
2023-02-16T16:39:36.092Z,58.50
2023-02-16T16:42:20.957Z,53.13
2023-02-16T16:45:00.472Z,53.78
2023-02-16T16:47:32.985Z,56.75
2023-02-16T16:50:03.937Z,53.63
2023-02-16T16:52:40.775Z,53.05
2023-02-16T16:55:22.454Z,55.60
2023-02-16T16:57:52.384Z,53.80
2023-02-16T17:00:21.518Z,52.67
2023-02-16T17:02:49.571Z,47.45
2023-02-16T17:05:17.353Z,53.05
2023-02-16T17:07:49.018Z,51.67
2023-02-16T17:10:18.020Z,46.83
2023-02-16T17:12:46.444Z,48.78
2023-02-16T17:15:31.174Z,52.70
2023-02-16T17:17:59.268Z,50.28
2023-02-16T17:20:27.076Z,51.65
2023-02-16T17:22:54.766Z,52.40
2023-02-16T17:25:22.472Z,55.80
2023-02-16T17:27:50.321Z,51.45
2023-02-16T17:30:18.423Z,49.22
2023-02-16T17:32:47.484Z,50.05
2023-02-16T17:35:15.367Z,46.88
2023-02-16T17:37:43.098Z,48.03
2023-02-16T17:40:15.036Z,51.28
2023-02-16T17:42:43.059Z,51.22
2023-02-16T17:45:10.984Z,47.10
2023-02-16T17:47:38.912Z,49.53
2023-02-16T17:50:09.592Z,54.22
2023-02-16T17:52:37.545Z,45.53
2023-02-16T17:55:05.568Z,50.22
2023-02-16T17:57:33.519Z,51.10
2023-02-16T18:00:01.232Z,47.88
2023-02-16T18:02:29.117Z,49.45
2023-02-16T18:04:56.765Z,47.55
2023-02-16T18:07:26.050Z,48.17
2023-02-16T18:09:53.979Z,52.00
2023-02-16T18:12:22.105Z,52.97
2023-02-16T18:14:49.740Z,48.42
2023-02-16T18:17:17.941Z,48.75
2023-02-16T18:19:45.714Z,50.08
2023-02-16T18:22:13.914Z,51.58
2023-02-16T18:24:44.410Z,49.30
2023-02-16T18:27:12.068Z,48.70
2023-02-16T18:29:39.869Z,48.13
2023-02-16T18:32:07.735Z,47.60
2023-02-16T18:34:37.560Z,40.33
2023-02-16T18:37:05.431Z,46.70
2023-02-16T18:39:33.475Z,52.03
2023-02-16T18:42:02.932Z,43.63
2023-02-16T18:44:30.551Z,44.22
2023-02-16T18:46:58.864Z,41.95
2023-02-16T18:49:26.521Z,43.65
2023-02-16T18:51:54.519Z,37.70
2023-02-16T18:54:22.156Z,40.50
2023-02-16T18:56:50.150Z,40.00
2023-02-16T18:59:19.208Z,38.78
2023-02-16T19:01:46.864Z,36.57
2023-02-16T19:04:14.509Z,40.60
2023-02-16T19:06:42.146Z,45.08
2023-02-16T19:09:09.787Z,43.05
2023-02-16T19:11:37.697Z,37.10
2023-02-16T19:14:05.325Z,38.80
2023-02-16T19:16:34.690Z,32.03
2023-02-16T19:19:02.542Z,36.22
2023-02-16T19:21:30.339Z,30.52
2023-02-16T19:23:59.018Z,35.58
2023-02-16T19:26:26.874Z,32.78
2023-02-16T19:28:54.853Z,29.83
2023-02-16T19:31:24.672Z,36.35
2023-02-16T19:33:55.686Z,33.00
2023-02-16T19:36:23.849Z,34.30
2023-02-16T19:38:51.552Z,34.10
2023-02-16T19:41:20.692Z,33.97
2023-02-16T19:43:48.475Z,35.92
2023-02-16T19:46:16.484Z,34.90
2023-02-16T19:48:45.980Z,32.38
2023-02-16T19:51:15.712Z,33.70
2023-02-16T19:53:44.829Z,31.33
2023-02-16T19:56:14.449Z,36.17
2023-02-16T19:58:42.077Z,33.92
2023-02-16T20:01:12.046Z,35.67
2023-02-16T20:03:40.049Z,31.67
2023-02-16T20:06:17.806Z,33.33
2023-02-16T20:08:46.137Z,27.05
2023-02-16T20:11:13.975Z,35.75
2023-02-16T20:13:41.709Z,42.47
2023-02-16T20:16:10.824Z,34.40
2023-02-16T20:18:39.297Z,38.65
2023-02-16T20:21:08.912Z,40.33
2023-02-16T20:23:37.998Z,39.83
2023-02-16T20:26:07.453Z,40.60
2023-02-16T20:28:35.326Z,39.05
2023-02-16T20:31:04.356Z,42.45
2023-02-16T20:33:31.981Z,39.22
2023-02-16T20:35:59.594Z,36.22
2023-02-16T20:38:27.171Z,42.57
2023-02-16T20:40:56.195Z,31.98
2023-02-16T20:43:23.916Z,30.48
2023-02-16T20:45:51.567Z,33.55
2023-02-16T20:48:19.682Z,12.18
2023-02-16T20:50:47.596Z,4.60
2023-02-16T20:53:15.188Z,2.75
2023-02-16T20:55:43.211Z,0.70
2023-02-16T20:58:12.272Z,1.30
2023-02-16T21:00:39.974Z,0.97
2023-02-16T21:03:07.684Z,2.90
2023-02-16T21:05:35.443Z,0.40
2023-02-16T21:08:03.458Z,2.28
2023-02-16T21:10:31.108Z,1.25
2023-02-16T21:12:58.748Z,2.70
2023-02-16T21:15:28.062Z,1.52
2023-02-16T21:17:55.784Z,2.22
2023-02-16T21:20:23.432Z,0.60
2023-02-16T21:22:51.480Z,1.40
2023-02-16T21:25:19.561Z,1.02
2023-02-16T21:27:47.241Z,1.20
2023-02-16T21:30:15.867Z,1.17
2023-02-16T21:32:45.063Z,0.98
2023-02-16T21:35:12.734Z,1.40
2023-02-16T21:37:40.409Z,0.45
2023-02-16T21:40:26.803Z,0.50
2023-02-16T21:42:54.457Z,0.50
2023-02-16T21:45:22.160Z,4.25
2023-02-16T21:48:08.940Z,1.23
2023-02-16T21:50:38.482Z,3.00
2023-02-16T21:53:07.052Z,1.60
2023-02-16T21:55:52.162Z,0.10
2023-02-16T21:58:19.800Z,0.77
2023-02-16T22:00:51.180Z,6.93
2023-02-16T22:03:21.066Z,0.30
2023-02-16T22:05:48.837Z,0.95
2023-02-16T22:08:17.799Z,0.63
2023-02-16T22:10:45.714Z,1.35
2023-02-16T22:13:13.413Z,0.80
2023-02-16T22:15:41.102Z,0.60
2023-02-16T22:18:08.969Z,2.10
2023-02-16T22:20:38.349Z,3.78
2023-02-16T22:23:05.995Z,1.40
2023-02-16T22:25:33.612Z,3.38
2023-02-16T22:28:01.374Z,0.57
2023-02-16T22:30:29.117Z,2.90
2023-02-16T22:32:56.817Z,0.82
2023-02-16T22:35:24.725Z,1.05
2023-02-16T22:37:53.818Z,1.42
2023-02-16T22:40:21.438Z,4.97
2023-02-16T22:42:49.088Z,0.68
2023-02-16T22:45:16.842Z,0.52
2023-02-16T22:47:44.491Z,1.77
2023-02-16T22:50:12.312Z,0.80
2023-02-16T22:52:40.076Z,0.80
2023-02-16T22:55:10.056Z,1.70
2023-02-16T22:57:37.988Z,1.40
2023-02-16T23:00:08.458Z,2.60
2023-02-16T23:02:37.640Z,6.28
2023-02-16T23:05:05.837Z,1.58
2023-02-16T23:07:34.130Z,0.30
2023-02-16T23:10:01.929Z,0.70
2023-02-16T23:12:31.005Z,7.45
2023-02-16T23:14:58.648Z,0.85
2023-02-16T23:17:26.300Z,0.60
2023-02-16T23:19:53.951Z,0.73
2023-02-16T23:22:21.719Z,5.78
2023-02-16T23:25:09.892Z,1.80
2023-02-16T23:27:39.372Z,1.85
2023-02-16T23:30:08.676Z,2.17
2023-02-16T23:32:36.631Z,0.93
2023-02-16T23:35:04.589Z,1.30
2023-02-16T23:37:32.460Z,1.70
2023-02-16T23:40:00.376Z,1.80
2023-02-16T23:42:28.059Z,0.28
2023-02-16T23:44:57.080Z,0.85
2023-02-16T23:47:24.867Z,1.15
2023-02-16T23:49:52.554Z,3.35
2023-02-16T23:52:20.443Z,1.40
2023-02-16T23:54:48.204Z,0.63
2023-02-16T23:57:15.860Z,0.40
2023-02-16T23:59:44.274Z,0.82
